createdAt,value
2023-02-14T00:04:21.578Z,5.88
2023-02-14T00:09:28.155Z,11.15
2023-02-14T00:14:34.389Z,10.75
2023-02-14T00:19:41.430Z,9.84
2023-02-14T00:24:47.880Z,10.95
2023-02-14T00:29:54.729Z,9.02
2023-02-14T00:35:00.888Z,7.91
2023-02-14T00:40:10.072Z,7.50
2023-02-14T00:45:16.354Z,12.07
2023-02-14T00:50:22.978Z,8.62
2023-02-14T00:55:29.152Z,11.05
2023-02-14T01:00:36.365Z,11.76
2023-02-14T01:05:43.619Z,10.85
2023-02-14T01:10:50.409Z,10.85
2023-02-14T01:15:56.776Z,9.73
2023-02-14T01:21:04.399Z,10.24
2023-02-14T01:26:10.892Z,10.14
2023-02-14T01:31:18.183Z,9.94
2023-02-14T01:36:31.187Z,11.05
2023-02-14T01:41:27.570Z,8.72
2023-02-14T01:46:34.306Z,9.33
2023-02-14T01:51:47.824Z,9.94
2023-02-14T01:56:45.232Z,9.43
2023-02-14T02:01:51.902Z,9.43
2023-02-14T02:06:59.443Z,10.55
2023-02-14T02:12:05.979Z,11.66
2023-02-14T02:17:12.296Z,11.26
2023-02-14T02:22:18.979Z,10.75
2023-02-14T02:27:26.238Z,10.75
2023-02-14T02:32:31.584Z,11.05
2023-02-14T02:37:38.054Z,10.14
2023-02-14T02:42:44.626Z,11.56
2023-02-14T02:47:51.041Z,12.37
2023-02-14T02:52:57.942Z,15.31
2023-02-14T02:58:05.293Z,12.27
2023-02-14T03:03:11.827Z,8.42
2023-02-14T03:08:19.376Z,10.04
2023-02-14T03:13:31.846Z,8.31
2023-02-14T03:18:28.203Z,11.15
2023-02-14T03:23:34.880Z,6.79
2023-02-14T03:28:41.007Z,9.02
2023-02-14T03:33:48.605Z,9.84
2023-02-14T03:38:56.058Z,9.84
2023-02-14T03:44:02.526Z,12.88
2023-02-14T03:49:10.839Z,11.26
2023-02-14T03:54:17.487Z,9.02
2023-02-14T03:59:24.093Z,12.57
2023-02-14T04:04:30.616Z,9.33
2023-02-14T04:09:36.807Z,10.65
2023-02-14T04:14:43.173Z,10.14
2023-02-14T04:19:50.796Z,12.07
2023-02-14T04:24:58.195Z,10.34
2023-02-14T04:30:05.723Z,12.37
2023-02-14T04:35:12.369Z,10.24
2023-02-14T04:40:18.892Z,16.02
2023-02-14T04:45:25.507Z,9.13
2023-02-14T04:50:32.936Z,5.98
2023-02-14T04:55:39.960Z,10.14
2023-02-14T05:00:46.230Z,8.92
2023-02-14T05:05:52.934Z,8.72
2023-02-14T05:11:00.036Z,11.46
2023-02-14T05:16:06.377Z,11.46
2023-02-14T05:21:32.917Z,11.66
2023-02-14T05:26:19.799Z,9.23
2023-02-14T05:31:26.869Z,8.52
2023-02-14T05:36:33.691Z,11.56
2023-02-14T05:41:40.003Z,11.05
2023-02-14T05:46:48.200Z,14.50
2023-02-14T05:51:54.506Z,9.63
2023-02-14T05:57:02.706Z,23.02
2023-02-14T06:02:09.175Z,11.97
2023-02-14T06:07:17.063Z,11.15
2023-02-14T06:12:24.932Z,12.47
2023-02-14T06:17:31.689Z,12.57
2023-02-14T06:22:38.043Z,10.24
2023-02-14T06:27:46.190Z,14.60
2023-02-14T06:32:51.357Z,15.21
2023-02-14T06:37:58.597Z,12.07
2023-02-14T06:43:04.427Z,16.63
2023-02-14T06:48:11.365Z,13.49
2023-02-14T06:53:17.569Z,19.77
2023-02-14T06:58:24.587Z,10.04
2023-02-14T07:03:30.699Z,12.17
2023-02-14T07:08:38.461Z,11.46
2023-02-14T15:47:56.675Z,1.47
2023-02-14T15:51:22.873Z,0.84
2023-02-14T15:56:29.116Z,0.58
2023-02-14T16:01:37.803Z,0.00
2023-02-14T16:06:43.753Z,3.92
2023-02-14T16:11:50.480Z,1.42
2023-02-14T16:16:56.677Z,0.00
2023-02-14T16:22:03.281Z,1.83
2023-02-14T16:27:10.716Z,2.64
2023-02-14T16:32:17.689Z,0.51
2023-02-14T16:37:24.091Z,0.10
2023-02-14T16:42:33.397Z,2.74
2023-02-14T16:47:39.593Z,3.55
2023-02-14T16:52:47.295Z,0.00
2023-02-14T16:57:53.298Z,0.91
2023-02-14T17:03:01.705Z,2.54
2023-02-14T17:08:08.180Z,3.55
2023-02-14T17:13:14.835Z,1.83
2023-02-14T17:18:21.293Z,3.75
2023-02-14T17:23:28.346Z,2.23
2023-02-14T17:28:34.502Z,3.24
2023-02-14T17:33:41.818Z,1.93
2023-02-14T17:38:48.864Z,3.14
2023-02-14T17:43:57.394Z,5.68
2023-02-14T17:49:03.565Z,5.78
2023-02-14T17:54:13.472Z,5.88
2023-02-14T17:59:19.551Z,4.16
2023-02-14T18:04:26.759Z,7.10
2023-02-14T18:09:33.026Z,5.98
2023-02-14T18:14:40.720Z,5.98
2023-02-14T18:19:47.718Z,5.98
2023-02-14T18:24:54.478Z,5.07
2023-02-14T18:30:00.963Z,5.78
2023-02-14T18:35:08.142Z,5.98
2023-02-14T18:40:14.369Z,5.98
2023-02-14T18:45:25.143Z,5.98
2023-02-14T18:50:21.531Z,11.36
2023-02-14T18:55:27.684Z,6.59
2023-02-14T19:00:38.804Z,6.29
2023-02-14T19:05:35.597Z,8.42
2023-02-14T19:10:39.825Z,7.81
2023-02-14T19:15:47.315Z,3.85
2023-02-14T19:20:54.818Z,7.81
2023-02-14T19:26:01.563Z,7.00
2023-02-14T19:31:07.829Z,5.07
2023-02-14T19:36:14.720Z,8.92
2023-02-14T19:41:22.036Z,8.01
2023-02-14T19:46:28.794Z,5.58
2023-02-14T19:51:35.156Z,5.98
2023-02-14T19:56:41.693Z,5.68
2023-02-14T20:01:48.253Z,7.00
2023-02-14T20:06:56.585Z,5.68
2023-02-14T20:12:02.946Z,11.36
2023-02-14T20:17:10.008Z,7.20
2023-02-14T20:22:16.431Z,6.19
2023-02-14T20:27:26.777Z,5.78
2023-02-14T20:32:22.972Z,11.05
2023-02-14T20:37:29.777Z,8.92
2023-02-14T20:42:36.451Z,9.73
2023-02-14T20:47:43.751Z,7.30
2023-02-14T20:52:51.067Z,8.31
2023-02-14T20:57:56.718Z,10.75
2023-02-14T21:03:03.595Z,8.01
2023-02-14T21:08:09.808Z,9.43
2023-02-14T21:13:19.029Z,6.39
2023-02-14T21:18:25.230Z,9.23
2023-02-14T21:23:32.307Z,8.42
2023-02-14T21:28:42.509Z,8.21
2023-02-14T21:33:40.027Z,8.52
2023-02-14T21:38:50.645Z,5.98
2023-02-14T21:43:47.724Z,6.08
2023-02-14T21:48:54.082Z,10.55
2023-02-14T21:54:01.274Z,9.23
2023-02-14T21:59:07.985Z,6.79
2023-02-14T22:04:15.083Z,6.08
2023-02-14T22:09:21.315Z,6.39
2023-02-14T22:14:28.026Z,6.29
2023-02-14T22:19:34.555Z,5.98
2023-02-14T22:24:42.064Z,6.08
2023-02-14T22:29:48.442Z,7.20
2023-02-14T22:34:56.139Z,10.14
2023-02-14T22:40:02.749Z,5.98
2023-02-14T22:45:09.365Z,6.08
2023-02-14T22:50:15.500Z,6.90
2023-02-14T22:55:22.610Z,8.42
2023-02-14T23:00:29.082Z,6.39
2023-02-14T23:05:36.587Z,6.59
2023-02-14T23:10:43.034Z,8.42
2023-02-14T23:15:50.187Z,10.95
2023-02-14T23:20:56.767Z,8.52
2023-02-14T23:26:07.654Z,7.71
2023-02-14T23:31:04.138Z,11.56
2023-02-14T23:36:10.691Z,6.39
2023-02-14T23:41:17.202Z,7.20
2023-02-14T23:46:24.439Z,9.02
2023-02-14T23:51:31.890Z,10.85
2023-02-14T23:56:38.457Z,5.98
